createdAt,value
2023-01-25T00:02:22.243Z,30.83
2023-01-25T00:04:48.824Z,34.73
2023-01-25T00:07:17.853Z,32.23
2023-01-25T00:09:44.328Z,36.30
2023-01-25T00:12:10.740Z,34.50
2023-01-25T00:14:37.134Z,33.70
2023-01-25T00:17:03.688Z,32.87
2023-01-25T00:19:30.073Z,34.40
2023-01-25T00:21:56.508Z,35.90
2023-01-25T00:24:23.322Z,38.00
2023-01-25T00:26:49.920Z,35.23
2023-01-25T00:29:16.368Z,41.87
2023-01-25T00:32:01.607Z,40.50
2023-01-25T00:34:29.542Z,39.07
2023-01-25T00:37:02.461Z,38.30
2023-01-25T00:39:29.443Z,38.03
2023-01-25T00:41:55.805Z,36.80
2023-01-25T00:44:23.236Z,37.60
2023-01-25T00:46:49.841Z,39.97
2023-01-25T00:49:20.893Z,40.10
2023-01-25T00:51:47.302Z,34.50
2023-01-25T00:54:13.645Z,38.50
2023-01-25T00:56:39.984Z,33.90
2023-01-25T00:59:06.608Z,39.43
2023-01-25T01:01:34.254Z,33.33
2023-01-25T01:04:00.811Z,34.17
2023-01-25T01:06:27.197Z,35.50
2023-01-25T01:08:53.527Z,36.37
2023-01-25T01:11:19.965Z,37.97
2023-01-25T01:13:46.576Z,36.73
2023-01-25T01:16:13.391Z,37.23
2023-01-25T01:18:41.272Z,36.93
2023-01-25T01:21:08.298Z,38.90
2023-01-25T01:23:35.259Z,41.77
2023-01-25T01:26:02.596Z,32.43
2023-01-25T01:28:29.676Z,35.93
2023-01-25T01:31:02.271Z,34.83
2023-01-25T01:33:28.771Z,32.43
2023-01-25T01:35:55.165Z,32.83
2023-01-25T01:38:21.747Z,37.00
2023-01-25T01:40:49.058Z,31.97
2023-01-25T01:43:19.559Z,32.60
2023-01-25T01:45:49.244Z,28.33
2023-01-25T01:48:15.692Z,29.33
2023-01-25T01:50:45.858Z,31.77
2023-01-25T01:53:12.299Z,30.17
2023-01-25T01:55:39.403Z,29.60
2023-01-25T01:58:06.863Z,26.90
2023-01-25T02:00:35.282Z,26.27
2023-01-25T02:03:02.712Z,27.57
2023-01-25T02:05:32.502Z,28.13
2023-01-25T02:07:59.181Z,29.37
2023-01-25T02:10:26.764Z,32.30
2023-01-25T02:12:54.473Z,30.50
2023-01-25T02:15:20.947Z,34.20
2023-01-25T02:17:47.526Z,30.23
2023-01-25T02:20:36.583Z,29.23
2023-01-25T02:23:12.031Z,26.97
2023-01-25T02:25:38.544Z,27.90
2023-01-25T02:28:25.183Z,23.70
2023-01-25T02:30:51.661Z,28.67
2023-01-25T02:33:18.089Z,30.83
2023-01-25T02:35:46.204Z,29.90
2023-01-25T02:38:13.747Z,27.10
2023-01-25T02:40:46.429Z,28.43
2023-01-25T02:43:13.970Z,27.60
2023-01-25T02:45:40.372Z,27.63
2023-01-25T02:48:06.761Z,30.93
2023-01-25T02:50:33.187Z,32.67
2023-01-25T02:52:59.556Z,31.23
2023-01-25T02:55:26.004Z,28.63
2023-01-25T02:57:52.366Z,26.63
2023-01-25T03:00:18.836Z,27.50
2023-01-25T03:02:45.365Z,28.70
2023-01-25T03:05:11.797Z,30.27
2023-01-25T03:07:38.357Z,25.23
2023-01-25T03:10:05.040Z,29.77
2023-01-25T03:12:31.573Z,30.30
2023-01-25T03:14:58.012Z,30.73
2023-01-25T03:17:25.066Z,28.67
2023-01-25T03:19:51.451Z,28.53
2023-01-25T03:22:17.858Z,31.63
2023-01-25T03:24:44.244Z,36.20
2023-01-25T03:27:10.724Z,30.77
2023-01-25T03:29:37.536Z,32.47
2023-01-25T03:32:04.575Z,28.20
2023-01-25T03:34:31.060Z,29.10
2023-01-25T03:36:57.562Z,29.50
2023-01-25T03:39:24.103Z,27.83
2023-01-25T03:41:50.585Z,30.63
2023-01-25T03:44:17.000Z,28.70
2023-01-25T03:46:43.481Z,30.33
2023-01-25T03:49:09.953Z,34.30
2023-01-25T03:51:36.635Z,35.17
2023-01-25T03:54:03.348Z,28.37
2023-01-25T03:56:29.730Z,28.47
2023-01-25T03:58:56.062Z,31.23
2023-01-25T04:01:22.782Z,27.80
2023-01-25T04:03:49.223Z,28.20
2023-01-25T04:06:15.698Z,29.50
2023-01-25T04:08:42.233Z,31.60
2023-01-25T04:11:09.584Z,29.83
2023-01-25T04:13:36.742Z,32.37
2023-01-25T04:16:07.199Z,37.07
2023-01-25T04:18:33.647Z,31.70
2023-01-25T04:21:00.088Z,29.97
2023-01-25T04:23:26.861Z,31.33
2023-01-25T04:26:00.998Z,35.93
2023-01-25T04:28:28.212Z,32.13
2023-01-25T04:30:55.419Z,31.47
2023-01-25T04:33:21.980Z,33.20
2023-01-25T04:35:48.388Z,39.17
2023-01-25T04:38:14.868Z,35.47
2023-01-25T04:40:42.173Z,36.33
2023-01-25T04:43:08.657Z,34.90
2023-01-25T04:45:36.401Z,33.57
2023-01-25T04:48:03.897Z,33.90
2023-01-25T04:50:30.648Z,31.73
2023-01-25T04:52:57.074Z,34.43
2023-01-25T04:55:23.488Z,36.90
2023-01-25T04:57:50.917Z,40.47
2023-01-25T05:00:17.821Z,32.47
2023-01-25T05:02:44.557Z,30.90
2023-01-25T05:05:11.811Z,28.77
2023-01-25T05:07:38.754Z,29.57
2023-01-25T05:10:06.244Z,26.80
2023-01-25T05:12:32.663Z,28.50
2023-01-25T05:14:59.005Z,28.17
2023-01-25T05:17:25.693Z,22.23
2023-01-25T05:19:52.057Z,26.83
2023-01-25T05:22:20.813Z,24.83
2023-01-25T05:24:47.883Z,25.67
2023-01-25T05:27:18.614Z,22.90
2023-01-25T05:29:45.405Z,24.37
2023-01-25T05:32:12.911Z,24.70
2023-01-25T05:34:39.751Z,21.33
2023-01-25T05:37:06.993Z,20.90
2023-01-25T05:39:33.411Z,21.57
2023-01-25T05:41:59.955Z,22.63
2023-01-25T05:44:26.604Z,20.40
2023-01-25T05:46:53.028Z,23.23
2023-01-25T05:49:19.855Z,23.90
2023-01-25T05:51:46.649Z,27.27
2023-01-25T05:54:14.125Z,22.77
2023-01-25T05:56:40.743Z,25.70
2023-01-25T05:59:07.373Z,24.30
2023-01-25T06:01:33.831Z,23.00
2023-01-25T06:04:00.284Z,22.20
2023-01-25T06:06:26.632Z,24.77
2023-01-25T06:08:52.975Z,25.20
2023-01-25T06:11:21.020Z,26.47
2023-01-25T06:13:47.810Z,25.07
2023-01-25T06:16:14.504Z,25.73
2023-01-25T06:18:40.923Z,26.10
2023-01-25T06:21:07.315Z,25.67
2023-01-25T06:23:33.721Z,24.70
2023-01-25T06:26:01.033Z,25.90
2023-01-25T06:28:30.155Z,28.73
2023-01-25T06:30:56.589Z,27.07
2023-01-25T06:33:22.932Z,28.93
2023-01-25T06:35:49.283Z,31.33
2023-01-25T06:38:15.682Z,26.53
2023-01-25T06:40:42.238Z,23.63
2023-01-25T06:43:09.603Z,26.00
2023-01-25T06:45:36.193Z,27.17
2023-01-25T06:48:02.628Z,27.60
2023-01-25T06:50:29.069Z,26.70
2023-01-25T06:52:55.699Z,31.47
2023-01-25T06:55:22.404Z,31.10
2023-01-25T06:57:48.897Z,28.37
2023-01-25T07:00:16.280Z,28.60
2023-01-25T07:02:42.708Z,29.83
2023-01-25T07:05:09.565Z,30.47
2023-01-25T07:07:36.190Z,29.50
2023-01-25T07:10:02.685Z,27.57
2023-01-25T07:12:30.181Z,28.67
2023-01-25T07:14:56.725Z,25.97
2023-01-25T07:17:23.846Z,28.90
2023-01-25T07:19:50.329Z,25.73
2023-01-25T07:22:18.081Z,28.90
2023-01-25T07:24:50.081Z,25.67
2023-01-25T07:27:17.477Z,32.50
2023-01-25T07:29:43.921Z,27.20
2023-01-25T07:32:12.211Z,31.13
2023-01-25T07:34:38.913Z,26.63
2023-01-25T07:37:05.438Z,24.30
2023-01-25T07:39:31.906Z,28.60
2023-01-25T07:41:58.469Z,27.10
2023-01-25T07:44:24.850Z,24.73
2023-01-25T07:46:51.249Z,25.87
2023-01-25T07:49:17.635Z,28.43
2023-01-25T07:51:44.217Z,24.60
2023-01-25T07:54:12.164Z,25.17
2023-01-25T07:56:40.574Z,28.90
2023-01-25T07:59:09.916Z,28.00
2023-01-25T08:01:37.175Z,27.30
2023-01-25T08:04:04.769Z,26.70
2023-01-25T08:06:37.084Z,32.23
2023-01-25T08:09:04.519Z,27.03
2023-01-25T08:11:31.361Z,32.27
2023-01-25T08:13:58.053Z,27.50
2023-01-25T08:16:26.231Z,29.90
2023-01-25T08:18:53.972Z,27.70
2023-01-25T08:21:20.412Z,24.70
2023-01-25T08:23:47.076Z,26.87
2023-01-25T08:26:14.300Z,28.07
2023-01-25T08:28:40.691Z,30.13
2023-01-25T08:31:11.146Z,39.60
2023-01-25T08:33:38.062Z,30.37
2023-01-25T08:36:05.406Z,32.20
2023-01-25T08:38:32.970Z,30.00
2023-01-25T08:41:06.896Z,32.33
2023-01-25T08:43:33.826Z,31.87
2023-01-25T08:46:00.399Z,30.27
2023-01-25T08:48:26.805Z,36.47
2023-01-25T08:50:53.430Z,33.53
2023-01-25T08:53:19.894Z,34.40
2023-01-25T08:55:46.312Z,32.03
2023-01-25T08:58:13.797Z,34.20
2023-01-25T09:00:41.087Z,35.27
2023-01-25T09:03:08.295Z,33.37
2023-01-25T09:05:35.096Z,34.67
2023-01-25T09:08:06.974Z,36.20
2023-01-25T09:10:34.758Z,32.97
2023-01-25T09:13:01.201Z,35.20
2023-01-25T09:15:27.786Z,33.50
2023-01-25T09:17:54.838Z,35.70
2023-01-25T09:20:21.615Z,32.23
2023-01-25T09:22:48.186Z,31.93
2023-01-25T09:25:14.951Z,34.50
2023-01-25T09:27:41.698Z,36.63
2023-01-25T09:30:16.555Z,31.50
2023-01-25T09:32:44.812Z,34.40
2023-01-25T09:35:11.318Z,34.67
2023-01-25T09:37:37.770Z,35.57
2023-01-25T09:40:05.031Z,36.47
2023-01-25T09:42:51.595Z,35.67
2023-01-25T09:45:24.084Z,33.93
2023-01-25T09:48:04.070Z,35.73
2023-01-25T09:50:36.663Z,37.17
2023-01-25T09:53:21.926Z,39.30
2023-01-25T09:55:50.997Z,39.57
2023-01-25T09:58:19.845Z,44.17
2023-01-25T10:00:48.178Z,44.30
2023-01-25T10:03:17.611Z,38.80
2023-01-25T10:05:45.632Z,37.30
2023-01-25T10:08:30.194Z,38.60
2023-01-25T10:11:20.047Z,36.87
2023-01-25T10:13:46.481Z,42.33
2023-01-25T10:16:27.439Z,38.77
2023-01-25T10:19:00.074Z,38.60
2023-01-25T10:21:32.473Z,42.27
2023-01-25T10:24:17.592Z,41.93
2023-01-25T10:26:47.286Z,39.80
2023-01-25T10:29:20.842Z,41.33
2023-01-25T10:31:53.456Z,44.20
2023-01-25T10:34:21.337Z,44.23
2023-01-25T10:36:50.999Z,43.07
2023-01-25T10:39:18.196Z,43.87
2023-01-25T10:41:48.221Z,47.47
2023-01-25T10:44:27.951Z,46.73
2023-01-25T10:47:00.715Z,48.00
2023-01-25T10:49:36.271Z,50.63
2023-01-25T10:52:23.156Z,46.17
2023-01-25T10:55:05.234Z,51.83
2023-01-25T10:57:32.463Z,46.70
2023-01-25T11:00:00.664Z,50.90
2023-01-25T11:02:36.547Z,51.87
2023-01-25T11:05:21.634Z,48.87
2023-01-25T11:07:48.533Z,50.23
2023-01-25T11:10:29.676Z,48.90
2023-01-25T11:13:14.981Z,55.93
2023-01-25T11:15:45.783Z,48.90
2023-01-25T11:18:20.491Z,48.93
2023-01-25T11:20:47.180Z,50.27
2023-01-25T11:23:22.005Z,53.87
2023-01-25T11:25:48.965Z,52.00
2023-01-25T11:28:18.203Z,49.10
2023-01-25T11:30:45.435Z,54.57
2023-01-25T11:33:12.968Z,54.60
2023-01-25T11:36:03.742Z,51.10
2023-01-25T11:38:30.418Z,49.73
2023-01-25T11:41:15.507Z,45.90
2023-01-25T11:43:54.071Z,52.30
2023-01-25T11:46:22.912Z,46.93
2023-01-25T11:48:52.046Z,57.13
2023-01-25T11:51:23.227Z,50.67
2023-01-25T11:53:58.475Z,47.30
2023-01-25T11:56:29.991Z,49.80
2023-01-25T11:59:11.977Z,46.33
2023-01-25T12:01:46.294Z,50.30
2023-01-25T12:04:31.314Z,46.17
2023-01-25T12:07:05.522Z,46.20
2023-01-25T12:09:51.280Z,46.37
2023-01-25T12:12:29.902Z,41.57
2023-01-25T12:15:17.328Z,45.37
2023-01-25T12:17:55.881Z,45.10
2023-01-25T12:20:31.488Z,44.83
2023-01-25T12:23:16.679Z,46.03
2023-01-25T12:25:43.198Z,45.80
2023-01-25T12:28:12.980Z,42.30
2023-01-25T12:30:45.624Z,45.97
2023-01-25T12:33:14.594Z,57.20
2023-01-25T12:35:56.291Z,44.00
2023-01-25T12:38:26.180Z,44.20
2023-01-25T12:40:59.559Z,47.67
2023-01-25T12:43:32.610Z,43.57
2023-01-25T12:46:00.153Z,42.20
2023-01-25T12:48:35.376Z,46.10
2023-01-25T12:51:01.803Z,42.30
2023-01-25T12:53:39.420Z,41.33
2023-01-25T12:56:06.917Z,42.93
2023-01-25T12:58:44.760Z,41.50
2023-01-25T13:01:11.270Z,44.13
2023-01-25T13:03:43.805Z,40.43
2023-01-25T13:06:18.525Z,38.47
2023-01-25T13:08:48.988Z,40.33
2023-01-25T13:11:33.229Z,38.57
2023-01-25T13:14:17.813Z,39.03
2023-01-25T13:16:45.534Z,38.93
2023-01-25T13:19:19.079Z,37.40
2023-01-25T13:21:46.406Z,38.50
2023-01-25T13:24:15.215Z,40.30
2023-01-25T13:26:48.857Z,39.50
2023-01-25T13:29:34.935Z,33.57
2023-01-25T13:32:02.048Z,40.47
2023-01-25T13:34:42.347Z,36.03
2023-01-25T13:37:23.006Z,34.30
2023-01-25T13:39:49.357Z,32.90
2023-01-25T13:42:26.317Z,38.00
2023-01-25T13:44:57.045Z,37.77
2023-01-25T13:47:25.455Z,39.30
2023-01-25T13:50:02.534Z,40.80
2023-01-25T13:52:31.178Z,37.27
2023-01-25T13:54:58.554Z,38.77
2023-01-25T13:57:26.961Z,37.53
2023-01-25T14:00:10.678Z,41.87
2023-01-25T14:02:38.700Z,41.27
2023-01-25T14:05:08.130Z,39.00
2023-01-25T14:07:36.972Z,39.20
2023-01-25T14:10:08.707Z,41.03
2023-01-25T14:12:40.336Z,40.03
2023-01-25T14:15:23.883Z,43.63
2023-01-25T14:18:14.263Z,41.70
2023-01-25T14:20:41.542Z,44.30
2023-01-25T14:23:24.707Z,48.73
2023-01-25T14:25:51.477Z,44.53
2023-01-25T14:28:18.509Z,43.83
2023-01-25T14:30:50.179Z,45.90
2023-01-25T14:33:40.341Z,47.13
2023-01-25T14:36:16.352Z,43.57
2023-01-25T14:38:50.714Z,49.50
2023-01-25T14:41:24.210Z,45.03
2023-01-25T14:43:51.864Z,49.27
2023-01-25T14:46:22.767Z,51.10
2023-01-25T14:48:49.287Z,51.17
2023-01-25T14:51:18.567Z,50.33
2023-01-25T14:53:47.984Z,53.03
2023-01-25T14:56:22.062Z,49.67
2023-01-25T14:58:59.071Z,54.57
2023-01-25T15:01:29.588Z,49.67
2023-01-25T15:03:56.141Z,57.37
2023-01-25T15:06:22.561Z,54.37
2023-01-25T15:08:49.017Z,55.80
2023-01-25T15:11:38.330Z,50.40
2023-01-25T15:14:14.680Z,59.10
2023-01-25T15:16:42.826Z,54.47
2023-01-25T15:19:21.619Z,57.67
2023-01-25T15:21:48.384Z,56.97
2023-01-25T15:24:14.866Z,54.77
2023-01-25T15:26:41.281Z,61.43
2023-01-25T15:29:20.225Z,61.43
2023-01-25T15:31:46.785Z,63.77
2023-01-25T15:34:15.241Z,57.23
2023-01-25T15:36:41.635Z,58.17
2023-01-25T15:39:12.789Z,60.57
2023-01-25T15:41:39.254Z,53.20
2023-01-25T15:44:05.855Z,61.50
2023-01-25T15:46:33.548Z,55.00
2023-01-25T15:49:00.031Z,58.53
2023-01-25T15:51:26.790Z,60.43
2023-01-25T15:53:53.236Z,57.17
2023-01-25T15:56:21.096Z,55.87
2023-01-25T15:58:49.122Z,74.53
2023-01-25T16:01:15.777Z,55.10
2023-01-25T16:03:42.316Z,56.80
2023-01-25T16:06:20.695Z,58.93
2023-01-25T16:08:47.081Z,63.07
2023-01-25T16:11:13.567Z,56.33
2023-01-25T16:13:41.567Z,56.37
2023-01-25T16:16:21.998Z,50.60
2023-01-25T16:18:48.977Z,51.40
2023-01-25T16:21:15.712Z,55.17
2023-01-25T16:23:42.768Z,58.00
2023-01-25T16:26:25.904Z,60.03
2023-01-25T16:28:52.318Z,54.93
2023-01-25T16:31:31.184Z,59.17
2023-01-25T16:33:58.887Z,52.70
2023-01-25T16:36:25.358Z,57.67
2023-01-25T16:38:52.098Z,53.30
2023-01-25T16:41:18.852Z,57.60
2023-01-25T16:43:46.568Z,55.83
2023-01-25T16:46:23.517Z,57.97
2023-01-25T16:48:51.244Z,51.50
2023-01-25T16:51:21.875Z,50.90
2023-01-25T16:53:49.010Z,55.20
2023-01-25T16:56:25.766Z,53.23
2023-01-25T16:58:52.876Z,48.97
2023-01-25T17:01:20.470Z,52.93
2023-01-25T17:03:47.436Z,54.00
2023-01-25T17:06:15.549Z,54.23
2023-01-25T17:08:42.042Z,45.27
2023-01-25T17:11:08.674Z,47.07
2023-01-25T17:13:35.321Z,48.30
2023-01-25T17:16:02.417Z,54.47
2023-01-25T17:18:29.447Z,54.90
2023-01-25T17:21:00.363Z,52.03
2023-01-25T17:23:27.884Z,48.93
2023-01-25T17:25:55.511Z,51.77
2023-01-25T17:28:22.437Z,53.00
2023-01-25T17:30:53.459Z,54.80
2023-01-25T17:33:20.746Z,51.93
2023-01-25T17:35:47.293Z,47.13
2023-01-25T17:38:13.821Z,50.87
2023-01-25T17:40:40.749Z,54.33
2023-01-25T17:43:07.218Z,48.03
2023-01-25T17:45:38.538Z,37.90
2023-01-25T17:48:09.165Z,51.00
2023-01-25T17:50:36.581Z,49.77
2023-01-25T17:53:03.401Z,56.93
2023-01-25T17:55:30.138Z,54.57
2023-01-25T17:57:57.635Z,49.60
2023-01-25T18:00:24.415Z,49.07
2023-01-25T18:02:51.801Z,51.13
2023-01-25T18:05:18.426Z,60.73
2023-01-25T18:07:45.486Z,58.00
2023-01-25T18:10:12.406Z,51.20
2023-01-25T18:12:39.105Z,60.13
2023-01-25T18:15:05.799Z,64.33
2023-01-25T18:17:35.892Z,69.47
2023-01-25T18:20:05.440Z,63.97
2023-01-25T18:22:32.471Z,66.40
2023-01-25T18:24:59.030Z,67.67
2023-01-25T18:27:26.520Z,66.23
2023-01-25T18:29:53.019Z,67.87
2023-01-25T18:32:19.597Z,69.83
2023-01-25T18:34:48.211Z,64.97
2023-01-25T18:37:18.385Z,64.07
2023-01-25T18:39:45.919Z,62.93
2023-01-25T18:42:12.362Z,69.03
2023-01-25T18:44:38.962Z,80.30
2023-01-25T18:47:05.453Z,74.07
2023-01-25T18:49:31.884Z,73.17
2023-01-25T18:52:10.824Z,83.40
2023-01-25T18:54:37.996Z,81.63
2023-01-25T18:57:04.636Z,82.37
2023-01-25T18:59:31.519Z,80.63
2023-01-25T19:01:58.024Z,89.00
2023-01-25T19:04:24.430Z,88.93
2023-01-25T19:06:56.712Z,90.83
2023-01-25T19:09:24.809Z,90.97
2023-01-25T19:11:51.989Z,90.43
2023-01-25T19:14:18.393Z,92.90
2023-01-25T19:16:44.810Z,87.27
2023-01-25T19:19:11.389Z,91.70
2023-01-25T19:21:38.721Z,86.00
2023-01-25T19:24:09.274Z,93.00
2023-01-25T19:26:35.867Z,86.17
2023-01-25T19:29:02.352Z,82.83
2023-01-25T19:31:32.134Z,83.33
2023-01-25T19:34:02.619Z,73.93
2023-01-25T19:36:29.891Z,66.07
2023-01-25T19:38:59.650Z,66.83
2023-01-25T19:41:27.463Z,74.57
2023-01-25T19:43:55.054Z,66.67
2023-01-25T19:46:22.933Z,69.27
2023-01-25T19:48:50.306Z,72.03
2023-01-25T19:51:16.681Z,66.80
2023-01-25T19:53:47.542Z,76.60
2023-01-25T19:56:16.226Z,70.90
2023-01-25T19:58:43.556Z,69.37
2023-01-25T20:01:17.921Z,74.47
2023-01-25T20:03:44.687Z,74.27
2023-01-25T20:06:11.597Z,81.43
2023-01-25T20:08:39.271Z,81.60
2023-01-25T20:11:11.283Z,80.23
2023-01-25T20:13:38.046Z,85.07
2023-01-25T20:16:04.675Z,90.17
2023-01-25T20:18:31.792Z,89.37
2023-01-25T20:20:59.363Z,88.27
2023-01-25T20:23:26.087Z,85.67
2023-01-25T20:26:18.803Z,87.03
2023-01-25T20:28:46.435Z,85.37
2023-01-25T20:31:39.401Z,88.37
2023-01-25T20:34:07.462Z,86.23
2023-01-25T20:36:34.908Z,88.10
2023-01-25T20:39:01.635Z,83.00
2023-01-25T20:41:28.254Z,76.83
2023-01-25T20:44:00.814Z,72.67
2023-01-25T20:46:27.685Z,78.03
2023-01-25T20:48:54.488Z,79.17
2023-01-25T20:51:21.708Z,76.57
2023-01-25T20:53:49.398Z,79.27
2023-01-25T20:56:16.397Z,77.80
2023-01-25T20:58:45.463Z,80.87
2023-01-25T21:01:16.400Z,78.97
2023-01-25T21:03:42.868Z,73.93
2023-01-25T21:06:09.293Z,74.83
2023-01-25T21:08:35.667Z,90.07
2023-01-25T21:11:02.524Z,77.77
2023-01-25T21:13:29.462Z,84.73
2023-01-25T21:16:06.451Z,78.23
2023-01-25T21:18:40.402Z,82.20
2023-01-25T21:21:06.823Z,79.40
2023-01-25T21:23:34.283Z,84.10
2023-01-25T21:26:01.620Z,90.03
2023-01-25T21:28:28.199Z,89.57
2023-01-25T21:30:54.847Z,80.50
2023-01-25T21:33:21.385Z,89.07
2023-01-25T21:35:47.809Z,91.53
2023-01-25T21:38:14.219Z,90.27
2023-01-25T21:40:40.633Z,85.37
2023-01-25T21:43:07.054Z,91.33
2023-01-25T21:45:52.266Z,89.50
2023-01-25T21:48:38.634Z,91.57
2023-01-25T21:51:23.667Z,92.23
2023-01-25T21:53:50.149Z,89.77
2023-01-25T21:56:16.483Z,100.27
2023-01-25T21:58:42.956Z,100.43
2023-01-25T22:01:10.091Z,98.23
2023-01-25T22:03:36.827Z,94.47
2023-01-25T22:06:03.295Z,94.87
2023-01-25T22:08:29.685Z,92.17
2023-01-25T22:11:03.229Z,94.47
2023-01-25T22:13:31.043Z,98.57
2023-01-25T22:16:01.304Z,99.07
2023-01-25T22:18:31.213Z,91.13
2023-01-25T22:20:58.632Z,96.17
2023-01-25T22:23:25.366Z,97.43
2023-01-25T22:26:02.855Z,106.53
2023-01-25T22:28:32.080Z,97.33
2023-01-25T22:30:58.721Z,102.60
2023-01-25T22:33:25.163Z,101.33
2023-01-25T22:35:51.617Z,97.73
2023-01-25T22:38:17.991Z,97.23
2023-01-25T22:40:44.350Z,98.47
2023-01-25T22:43:10.734Z,92.03
2023-01-25T22:45:37.185Z,101.63
2023-01-25T22:48:03.618Z,93.57
2023-01-25T22:50:30.629Z,97.30
2023-01-25T22:52:56.979Z,107.73
2023-01-25T22:55:23.436Z,103.90
2023-01-25T22:57:49.837Z,97.03
2023-01-25T23:00:16.573Z,100.07
2023-01-25T23:02:43.100Z,100.03
2023-01-25T23:05:09.569Z,103.60
2023-01-25T23:07:35.961Z,101.53
2023-01-25T23:10:02.327Z,106.23
2023-01-25T23:12:28.700Z,102.80
2023-01-25T23:14:55.087Z,108.63
2023-01-25T23:17:41.278Z,114.47
2023-01-25T23:20:09.639Z,102.77
2023-01-25T23:22:36.448Z,104.90
2023-01-25T23:25:03.657Z,105.63
2023-01-25T23:27:30.234Z,99.93
2023-01-25T23:29:56.657Z,103.87
2023-01-25T23:32:23.173Z,104.73
2023-01-25T23:34:53.241Z,93.43
2023-01-25T23:37:21.069Z,104.70
2023-01-25T23:39:48.307Z,90.53
2023-01-25T23:42:14.740Z,105.50
2023-01-25T23:44:41.088Z,95.83
2023-01-25T23:47:07.432Z,106.43
2023-01-25T23:49:33.858Z,95.97
2023-01-25T23:52:00.390Z,96.47
2023-01-25T23:54:29.707Z,91.03
2023-01-25T23:56:56.131Z,86.33
2023-01-25T23:59:22.572Z,88.90
